Flight Track Log - Related Links

Times and Time Zones

All times are in EDT time to prevent confusion due to time zone crossing. See the UAL4528 flight status page for this flight to view local times or setup timezone preferences in your user account.

Time Position Orientation Groundspeed Altitude Reporting Facility
EDT Latitude Longitude Course Direction KTS MPH feet Rate Location/Type
Tue 07:12:57 PM 29.9639 -95.3458 291° West 138 159 800  Level Houston Center
Tue 07:13:19 PM 29.9531 -95.3469 185° South 140 161 1,500 1,672 Climbing Houston Center
Tue 07:13:58 PM 29.9250 -95.3794 225° Southwest 228 262 2,500 1,452 Climbing Houston Center
Tue 07:14:21 PM 29.9133 -95.3956 230° Southwest 223 257 3,000 1,624 Climbing Houston Center
Tue 07:15:23 PM 29.8703 -95.4528 229° Southwest 234 269 4,800 2,032 Climbing Houston Center
Tue 07:16:00 PM 30.0341 -95.8095 276° West  Level FlightAware Approximate
Tue 07:16:25 PM 29.8625 -95.5256 263° West 275 316 7,200  Level Houston Center
Tue 07:17:00 PM 30.0441 -95.9293 276° West  Level FlightAware Approximate
Tue 07:17:27 PM 29.9147 -95.6178 303° West 290 334 9,200  Level Houston Center
Tue 07:18:00 PM 30.0653 -96.0460 291° West  Level FlightAware Approximate
Tue 07:18:29 PM 29.9456 -95.7078 292° West 304 350 11,100  Level Houston Center
Tue 07:19:30 PM 29.9767 -95.7978 292° West 302 348 13,200 1,659 Climbing Houston Center
Tue 07:20:32 PM 30.0097 -95.8894 293° West 308 354 14,500 1,113 Climbing Houston Center
Tue 07:21:34 PM 30.0447 -95.9892 292° West 331 381 15,500 919 Climbing Houston Center
Tue 07:22:36 PM 30.0783 -96.1053 289° West 352 405 16,400 1,113 Climbing Houston Center
Tue 07:23:38 PM 30.0944 -96.2203 279° West 363 418 17,800 1,839 Climbing Houston Center
Tue 07:24:40 PM 30.1117 -96.3272 281° West 343 395 20,200 1,887 Climbing Houston Center
Tue 07:25:42 PM 30.1300 -96.4533 280° West 346 398 21,700 1,306 Climbing Houston Center
Tue 07:26:44 PM 30.1469 -96.5669 280° West 354 407 22,900 1,065 Climbing Houston Center
Tue 07:27:46 PM 30.1658 -96.6861 280° West 371 427 23,900 919 Climbing Houston Center
Tue 07:28:48 PM 30.1833 -96.8075 279° West 378 435 24,800 919 Climbing Houston Center
Tue 07:29:50 PM 30.2014 -96.9308 280° West 384 442 25,800 968 Climbing Houston Center
Tue 07:30:52 PM 30.2211 -97.0528 281° West 382 440 26,800 1,065 Climbing Houston Center
Tue 07:31:54 PM 30.2969 -97.1708 307° West 392 451 28,000 1,024 Climbing Houston Center
Tue 07:32:55 PM 30.3706 -97.2661 312° West 391 450 28,900 878 Climbing Houston Center
Tue 07:33:57 PM 30.4433 -97.3631 311° West 393 452 29,800 919 Climbing Houston Center
Tue 07:34:59 PM 30.5192 -97.4600 312° West 397 457 30,800 919 Climbing Houston Center
Tue 07:36:01 PM 30.5919 -97.5583 311° West 398 458 31,700 581 Climbing Houston Center
Tue 07:37:03 PM 30.6692 -97.6578 312° West 404 465 32,000 145 Climbing Houston Center
Tue 07:38:05 PM 30.7486 -97.7636 311° West 421 484 32,000  Level Houston Center
Tue 07:39:07 PM 30.8261 -97.8647 312° West 416 479 32,000  Level Houston Center
Tue 07:40:09 PM 30.9025 -97.9681 311° West 415 478 32,000  Level Houston Center
Tue 07:41:11 PM 30.9808 -98.0711 312° West 419 482 32,000  Level Houston Center
Tue 07:42:12 PM 31.0586 -98.1756 311° West 420 483 32,000  Level Houston Center
Tue 07:43:14 PM 31.1511 -98.2969 312° West 423 487 32,000  Level Houston Center
Tue 07:44:16 PM 31.2292 -98.4017 311° West 423 487 32,000  Level Houston Center
Tue 07:45:18 PM 31.3069 -98.5056 311° West 421 484 32,000  Level Houston Center
Tue 07:46:20 PM 31.3869 -98.6181 310° West 417 480 32,000  Level Fort Worth Center
Tue 07:47:20 PM 31.4653 -98.7236 311° West 417 480 32,000  Level Fort Worth Center
Tue 07:48:20 PM 31.5414 -98.8294 310° West 417 480 32,000  Level Fort Worth Center
Tue 07:49:20 PM 31.6153 -98.9283 311° West 417 480 32,000  Level Fort Worth Center
Tue 07:50:20 PM 31.6750 -99.0122 310° West 412 474 32,000  Level Fort Worth Center
Tue 07:51:19 PM 31.7569 -99.1164 313° West 407 468 32,000  Level Fort Worth Center
Tue 07:52:20 PM 31.8308 -99.2203 310° West 412 474 32,000  Level Fort Worth Center
Tue 07:53:19 PM 31.9003 -99.3197 309° West 407 468 32,000  Level Fort Worth Center
Tue 07:54:20 PM 31.9758 -99.4217 311° West 407 468 32,000  Level Fort Worth Center
Tue 07:55:19 PM 32.0494 -99.5214 311° West 407 468 32,000  Level Fort Worth Center
Tue 07:56:20 PM 32.1228 -99.6236 310° West 407 468 32,000  Level Fort Worth Center
Tue 07:57:20 PM 32.1961 -99.7236 311° West 407 468 32,000  Level Fort Worth Center
Tue 07:58:20 PM 32.2653 -99.8211 310° West 407 468 32,000  Level Fort Worth Center
Tue 07:59:20 PM 32.3364 -99.9239 309° West 407 468 32,000  Level Fort Worth Center
Tue 08:00:32 PM 32.4317 -100.0569 310° West 412 474 32,000  Level Fort Worth Center
Tue 08:01:32 PM 32.5067 -100.1625 310° West 412 474 32,000  Level Fort Worth Center
Tue 08:02:31 PM 32.5817 -100.2683 310° West 412 474 32,000  Level Fort Worth Center
Tue 08:03:32 PM 32.6586 -100.3719 311° West 412 474 32,000  Level Fort Worth Center
Tue 08:04:32 PM 32.7272 -100.4706 310° West 406 467 32,000  Level Fort Worth Center
Tue 08:05:31 PM 32.7997 -100.5744 310° West 406 467 32,000  Level Fort Worth Center
Tue 08:06:32 PM 32.8744 -100.6758 311° West 406 467 32,000 -645 Level Fort Worth Center
Tue 08:07:32 PM 32.9447 -100.7800 309° West 406 467 30,700 -1,550 Descending Fort Worth Center
Tue 08:08:32 PM 33.0192 -100.8844 310° West 411 473 28,900 -1,800 Descending Fort Worth Center
Tue 08:09:32 PM 33.0914 -100.9864 310° West 411 473 27,100 -1,846 Descending Fort Worth Center
Tue 08:10:29 PM 33.1572 -101.0883 308° West 414 476 25,300 -1,556 Descending Fort Worth Center
Tue 08:10:53 PM 33.1853 -101.1317 308° West 420 483 25,000 -286 Descending Fort Worth Center
Tue 08:11:32 PM 33.2394 -101.2008 313° West 421 484 25,000 -295 Level Fort Worth Center
Tue 08:11:54 PM 33.2614 -101.2392 304° West 427 491 24,700 -2,000 Descending Fort Worth Center
Tue 08:12:32 PM 33.3133 -101.3086 312° West 421 484 23,000 -3,000 Descending Fort Worth Center
Tue 08:12:54 PM 33.3372 -101.3469 307° West 420 483 21,700 -3,763 Descending Fort Worth Center
Tue 08:13:31 PM 33.3853 -101.4111 312° West 410 472 19,300 -4,033 Descending Fort Worth Center
Tue 08:13:55 PM 33.4111 -101.4547 305° West 384 442 17,600 -3,900 Descending Fort Worth Center
Tue 08:14:31 PM 33.4489 -101.5111 309° West 393 452 15,400 -4,100 Descending Fort Worth Center
Tue 08:14:55 PM 33.4556 -101.5614 279° West 360 414 13,500 -3,836 Descending Fort Worth Center
Tue 08:15:32 PM 33.4722 -101.6217 288° West 355 409 11,500 -2,557 Descending Fort Worth Center
Tue 08:15:56 PM 33.4706 -101.6714 268° West 330 380 10,900 -1,800 Descending Fort Worth Center
Tue 08:16:32 PM 33.4628 -101.7208 259° West 324 373 9,700 -2,149 Descending Fort Worth Center
Tue 08:17:03 PM 33.4344 -101.7519 223° Southwest 259 298 8,500 -2,339 Descending Fort Worth Center
Tue 08:17:31 PM 33.4072 -101.7531 182° South 215 247 7,400 -2,300 Descending Fort Worth Center
Tue 08:18:03 PM 33.3811 -101.7867 227° Southwest 234 269 6,200 -1,869 Descending Fort Worth Center
Tue 08:18:32 PM 33.3992 -101.8100 313° West 175 201 5,500 -984 Descending Fort Worth Center
Tue 08:19:04 PM 33.4256 -101.8311 326° Northwest 211 243 5,200 -400 Descending Fort Worth Center
Tue 08:19:32 PM 33.4461 -101.8347 352° North 148 170 5,100 -400 Descending Fort Worth Center
Tue 08:20:04 PM 33.4778 -101.8286 North 188 216 4,800 -300 Descending Fort Worth Center
Tue 08:20:32 PM 33.5028 -101.8300 357° North 146 168 4,800  Level Fort Worth Center
Tue 08:21:11 PM 33.5339 -101.8317 357° North 171 197 4,800  Level Fort Worth Center
Tue 08:21:32 PM 33.5444 -101.8297 North 161 185 4,800  Level Fort Worth Center

Login

Don't have an account? Register now (free) for customized features, flight alerts, and more!